createdAt,value
2019-04-26T00:03:09.353Z,16.30
2019-04-26T00:13:03.460Z,16.30
2019-04-26T00:17:59.588Z,16.10
2019-04-26T00:22:54.423Z,16.10
2019-04-26T00:27:48.597Z,16.10
2019-04-26T00:37:37.259Z,16.10
2019-04-26T00:42:32.526Z,16.20
2019-04-26T00:47:28.098Z,16.20
2019-04-26T00:52:23.699Z,16.20
2019-04-26T00:57:20.213Z,16.20
2019-04-26T01:02:19.344Z,16.20
2019-04-26T01:07:15.690Z,16.20
2019-04-26T01:12:09.975Z,16.30
2019-04-26T01:17:06.135Z,16.20
2019-04-26T01:22:03.706Z,16.20
2019-04-26T01:27:01.698Z,16.20
2019-04-26T01:32:05.387Z,16.10
2019-04-26T01:37:05.697Z,16.10
2019-04-26T01:42:02.577Z,16.00
2019-04-26T01:46:57.476Z,16.00
2019-04-26T01:51:57.611Z,15.80
2019-04-26T01:56:54.663Z,15.80
2019-04-26T02:02:07.589Z,15.70
2019-04-26T02:07:02.688Z,15.60
2019-04-26T02:11:57.524Z,15.50
2019-04-26T02:16:52.142Z,15.30
2019-04-26T02:21:48.561Z,15.20
2019-04-26T02:26:46.301Z,15.10
2019-04-26T02:31:43.069Z,15.00
2019-04-26T02:36:56.096Z,14.80
2019-04-26T02:41:37.205Z,14.80
2019-04-26T02:46:55.133Z,14.80
2019-04-26T02:51:52.349Z,14.80
2019-04-26T02:56:49.303Z,14.80
2019-04-26T03:01:43.918Z,14.60
2019-04-26T03:06:42.676Z,14.50
2019-04-26T03:11:45.854Z,14.50
2019-04-26T03:16:59.502Z,14.40
2019-04-26T03:22:13.135Z,14.40
2019-04-26T03:27:22.795Z,14.30
2019-04-26T03:37:45.191Z,14.30
2019-04-26T03:43:04.908Z,14.20
2019-04-26T03:48:21.344Z,14.20
2019-04-26T03:58:25.579Z,14.20
2019-04-26T04:03:47.572Z,14.30
2019-04-26T04:08:56.455Z,14.30
2019-04-26T04:18:55.821Z,14.50
2019-04-26T04:23:52.990Z,14.70
2019-04-26T04:29:03.761Z,14.90
2019-04-26T04:34:07.391Z,15.00
2019-04-26T04:39:13.108Z,15.30
2019-04-26T04:44:29.886Z,16.80
2019-04-26T04:49:52.705Z,17.70
2019-04-26T04:55:06.416Z,18.60
2019-04-26T04:59:54.967Z,20.10
2019-04-26T05:05:05.959Z,21.10
2019-04-26T05:10:06.191Z,21.50
2019-04-26T05:15:05.856Z,22.50
2019-04-26T05:20:06.199Z,24.20
2019-04-26T05:25:23.751Z,26.10
2019-04-26T05:30:40.435Z,27.50
2019-04-26T05:36:00.325Z,29.20
2019-04-26T05:41:10.109Z,30.60
2019-04-26T05:46:32.140Z,31.80
2019-04-26T05:51:27.877Z,32.10
2019-04-26T05:56:32.784Z,32.20
2019-04-26T06:01:54.749Z,32.40
2019-04-26T06:07:05.652Z,32.80
2019-04-26T06:12:07.161Z,32.40
2019-04-26T06:17:22.213Z,33.50
2019-04-26T06:22:25.424Z,35.50
2019-04-26T06:27:27.366Z,37.50
2019-04-26T06:32:24.730Z,38.50
2019-04-26T06:37:32.789Z,39.30
2019-04-26T06:42:56.273Z,40.10
2019-04-26T06:48:04.605Z,40.70
2019-04-26T06:53:24.799Z,41.60
2019-04-26T06:58:45.735Z,42.20
2019-04-26T07:04:00.724Z,42.80
2019-04-26T07:09:02.179Z,43.00
2019-04-26T07:19:15.475Z,44.90
2019-04-26T07:24:33.025Z,45.40
2019-04-26T07:29:30.200Z,45.70
2019-04-26T07:40:13.270Z,47.00
2019-04-26T07:45:12.388Z,47.20
2019-04-26T07:50:22.454Z,48.20
2019-04-26T07:55:38.530Z,48.60
2019-04-26T08:00:44.980Z,48.70
2019-04-26T08:05:55.543Z,49.00
2019-04-26T08:11:10.820Z,48.50
2019-04-26T08:16:23.872Z,49.40
2019-04-26T08:21:36.993Z,49.00
2019-04-26T08:26:34.473Z,48.00
2019-04-26T08:31:31.847Z,48.70
2019-04-26T08:36:30.540Z,49.30
2019-04-26T08:41:26.916Z,49.80
2019-04-26T08:46:43.205Z,50.50
2019-04-26T08:51:39.427Z,51.00
2019-04-26T08:56:42.558Z,51.60
2019-04-26T09:01:37.792Z,52.00
2019-04-26T09:06:39.259Z,49.90
2019-04-26T09:11:35.450Z,47.10
2019-04-26T09:16:30.784Z,45.20
2019-04-26T09:21:38.839Z,44.80
2019-04-26T09:26:35.591Z,45.30
2019-04-26T09:31:43.437Z,43.70
2019-04-26T09:36:37.711Z,43.20
2019-04-26T09:41:32.946Z,43.60
2019-04-26T09:46:28.974Z,43.90
2019-04-26T09:51:25.526Z,42.60
2019-04-26T09:56:21.307Z,41.50
2019-04-26T10:01:19.633Z,43.30
2019-04-26T10:06:14.731Z,44.30
2019-04-26T10:16:17.148Z,43.90
2019-04-26T10:21:11.730Z,44.80
2019-04-26T10:26:08.091Z,42.40
2019-04-26T10:31:02.393Z,44.10
2019-04-26T10:35:57.881Z,45.30
2019-04-26T10:40:52.432Z,42.40
2019-04-26T10:45:53.626Z,40.80
2019-04-26T10:50:43.238Z,40.20
2019-04-26T10:55:39.402Z,39.60
2019-04-26T11:00:48.467Z,40.70
2019-04-26T11:05:42.175Z,44.30
2019-04-26T11:10:48.056Z,44.70
2019-04-26T11:15:34.119Z,45.10
2019-04-26T11:20:30.542Z,43.30
2019-04-26T11:25:28.124Z,40.50
2019-04-26T11:30:21.878Z,38.20
2019-04-26T11:35:16.101Z,36.50
2019-04-26T11:40:14.552Z,35.30
2019-04-26T11:45:10.796Z,34.00
2019-04-26T11:50:12.462Z,33.30
2019-04-26T11:55:06.621Z,32.90
2019-04-26T12:00:01.463Z,32.40
2019-04-26T12:05:05.555Z,32.10
2019-04-26T12:10:09.869Z,31.80
2019-04-26T12:15:03.864Z,31.50
2019-04-26T12:19:59.210Z,31.20
2019-04-26T12:24:54.317Z,31.00
2019-04-26T12:29:49.767Z,30.80
2019-04-26T12:34:45.841Z,30.70
2019-04-26T12:39:40.268Z,30.70
2019-04-26T12:44:48.935Z,30.60
2019-04-26T12:49:43.403Z,30.40
2019-04-26T12:54:38.954Z,30.10
2019-04-26T12:59:44.105Z,29.80
2019-04-26T13:04:36.279Z,29.40
2019-04-26T13:09:28.083Z,29.10
2019-04-26T13:14:24.150Z,28.90
2019-04-26T13:19:19.849Z,28.70
2019-04-26T13:24:15.802Z,28.70
2019-04-26T13:29:10.115Z,28.90
2019-04-26T13:34:07.717Z,29.00
2019-04-26T13:39:01.915Z,28.90
2019-04-26T13:43:57.174Z,28.70
2019-04-26T13:48:56.336Z,28.90
2019-04-26T13:53:51.064Z,28.90
2019-04-26T13:58:45.349Z,28.70
2019-04-26T14:03:40.053Z,28.60
2019-04-26T14:08:34.269Z,28.50
2019-04-26T14:13:29.497Z,28.40
2019-04-26T14:18:23.788Z,28.20
2019-04-26T14:23:39.174Z,28.00
2019-04-26T14:28:36.342Z,27.90
2019-04-26T14:33:31.038Z,27.60
2019-04-26T14:38:28.031Z,27.10
2019-04-26T14:43:23.522Z,26.90
2019-04-26T14:48:22.215Z,26.60
2019-04-26T14:53:13.953Z,26.30
2019-04-26T14:58:08.777Z,26.10
2019-04-26T15:03:17.405Z,25.90
2019-04-26T15:08:13.323Z,25.70
2019-04-26T15:13:15.322Z,25.60
2019-04-26T15:18:07.700Z,25.40
2019-04-26T15:23:04.543Z,25.20
2019-04-26T15:27:58.971Z,25.10
2019-04-26T15:32:53.807Z,25.00
2019-04-26T15:37:49.113Z,25.00
2019-04-26T15:47:58.481Z,25.20
2019-04-26T15:52:52.787Z,25.40
2019-04-26T15:57:48.513Z,25.00
2019-04-26T16:02:42.790Z,24.80
2019-04-26T16:07:37.895Z,24.70
2019-04-26T16:12:32.181Z,24.70
2019-04-26T16:17:27.165Z,24.50
2019-04-26T16:22:22.028Z,24.30
2019-04-26T16:27:18.767Z,23.90
2019-04-26T16:32:30.223Z,23.40
2019-04-26T16:37:24.624Z,23.00
2019-04-26T16:42:19.132Z,22.70
2019-04-26T16:47:13.530Z,22.40
2019-04-26T16:52:08.646Z,22.20
2019-04-26T17:00:33.602Z,22.00
2019-04-26T17:02:02.731Z,21.80
2019-04-26T17:07:01.721Z,21.60
2019-04-26T17:11:54.109Z,21.50
2019-04-26T17:16:48.550Z,21.40
2019-04-26T17:21:45.812Z,21.20
2019-04-26T17:26:42.804Z,21.10
2019-04-26T17:31:38.516Z,20.80
2019-04-26T17:36:34.506Z,20.50
2019-04-26T17:41:31.044Z,20.10
2019-04-26T17:46:26.937Z,19.80
2019-04-26T17:51:23.389Z,19.60
2019-04-26T17:56:18.335Z,19.40
2019-04-26T18:01:33.312Z,19.20
2019-04-26T18:06:14.122Z,18.90
2019-04-26T18:11:06.550Z,18.60
2019-04-26T18:16:03.634Z,18.30
2019-04-26T18:21:20.623Z,18.00
2019-04-26T18:26:17.389Z,17.80
2019-04-26T18:36:06.494Z,17.40
2019-04-26T18:41:01.548Z,17.20
2019-04-26T18:45:58.807Z,16.90
2019-04-26T18:50:55.357Z,16.70
2019-04-26T18:55:53.523Z,16.60
2019-04-26T19:00:49.105Z,16.30
2019-04-26T19:05:44.934Z,16.10
2019-04-26T19:10:39.366Z,16.00
2019-04-26T19:15:53.180Z,15.80
2019-04-26T19:21:05.778Z,15.70
2019-04-26T19:26:01.652Z,15.50
2019-04-26T19:30:56.133Z,15.30
2019-04-26T19:35:50.315Z,15.20
2019-04-26T19:40:47.754Z,15.30
2019-04-26T19:46:01.449Z,15.30
2019-04-26T19:50:58.746Z,15.20
2019-04-26T19:56:11.753Z,15.20
2019-04-26T20:01:06.470Z,15.10
2019-04-26T20:06:01.022Z,15.00
2019-04-26T20:10:55.478Z,14.80
2019-04-26T20:15:51.437Z,14.70
2019-04-26T20:20:45.707Z,14.60
2019-04-26T20:25:39.806Z,14.40
2019-04-26T20:30:35.740Z,14.30
2019-04-26T20:35:31.943Z,14.30
2019-04-26T20:40:26.242Z,14.10
2019-04-26T20:45:21.738Z,14.00
2019-04-26T20:50:15.950Z,14.00
2019-04-26T20:55:11.694Z,13.90
2019-04-26T21:00:08.217Z,13.80
2019-04-26T21:05:06.263Z,13.70
2019-04-26T21:09:58.232Z,13.70
2019-04-26T21:14:53.548Z,13.70
2019-04-26T21:19:50.021Z,13.50
2019-04-26T21:24:50.704Z,13.50
2019-04-26T21:30:00.672Z,13.40
2019-04-26T21:34:56.974Z,13.30
2019-04-26T21:40:09.698Z,13.40
2019-04-26T21:45:05.850Z,13.40
2019-04-26T21:50:00.780Z,13.50
2019-04-26T21:55:43.381Z,13.50
2019-04-26T22:00:50.495Z,13.40
2019-04-26T22:05:49.807Z,13.20
2019-04-26T22:10:43.659Z,13.20
2019-04-26T22:15:42.100Z,13.20
2019-04-26T22:20:38.248Z,13.10
2019-04-26T22:25:34.382Z,13.20
2019-04-26T22:30:29.724Z,13.20
2019-04-26T22:35:25.146Z,13.20
2019-04-26T22:40:19.847Z,13.20
2019-04-26T22:45:19.674Z,13.30
2019-04-26T22:50:20.678Z,13.20
2019-04-26T22:55:10.466Z,13.10
2019-04-26T23:00:05.977Z,13.10
2019-04-26T23:09:55.371Z,13.00
2019-04-26T23:15:05.866Z,13.00
2019-04-26T23:20:07.833Z,12.90
2019-04-26T23:25:03.526Z,12.90
2019-04-26T23:29:58.518Z,12.90
2019-04-26T23:34:53.538Z,12.90
2019-04-26T23:39:49.448Z,13.00
2019-04-26T23:44:44.127Z,12.90
2019-04-26T23:54:35.887Z,12.90
2019-04-26T23:59:29.082Z,12.80
